Terminal Aerodrome Forecast
Issued by NWS Wichita, KS

Home | Current Version | Previous Version | Graphics & Text | Print | Product List | Glossary On
Versions: 1 2 3 4 5 6 7 8 9 10 11 12 13 14 15 16
228
FTUS43 KICT 242239 AAC
TAFICT
TAF AMD
KICT 242239Z 2423/2518 24025G45KT 1SM +TSRA SCT015 BKN050CB
     FM250000 15008KT P6SM -SHRA VCTS BKN040CB
      TEMPO 2500/2504 VRB25G40KT 1SM +TSRA SCT015 OVC040CB
     FM250600 29004KT P6SM -SHRA OVC040
     FM251100 VRB05KT P6SM -SHRA OVC030
     FM251600 34010KT P6SM -SHRA VCTS OVC030CB=

USA.gov is the U.S. government's official web portal to all federal, state and local government web resources and services.